createdAt,value
2023-05-17T00:01:52.323Z,4
2023-05-17T00:02:52.357Z,5
2023-05-17T00:03:52.312Z,3
2023-05-17T00:04:52.366Z,3
2023-05-17T00:05:52.312Z,3
2023-05-17T00:06:52.319Z,2
2023-05-17T00:07:52.360Z,6
2023-05-17T00:08:52.305Z,5
2023-05-17T00:09:52.347Z,5
2023-05-17T00:10:52.333Z,5
2023-05-17T00:11:52.316Z,6
2023-05-17T00:12:52.315Z,5
2023-05-17T00:13:52.340Z,6
2023-05-17T00:14:52.315Z,4
2023-05-17T00:15:52.307Z,4
2023-05-17T00:16:52.311Z,5
2023-05-17T00:17:52.395Z,3
2023-05-17T00:19:52.337Z,5
2023-05-17T00:20:52.304Z,2
2023-05-17T00:21:52.310Z,4
2023-05-17T00:22:52.320Z,5
2023-05-17T00:23:52.318Z,4
2023-05-17T00:24:52.318Z,4
2023-05-17T00:25:52.310Z,3
2023-05-17T00:26:52.317Z,5
2023-05-17T00:27:52.320Z,3
2023-05-17T00:28:52.297Z,5
2023-05-17T00:29:52.333Z,4
2023-05-17T00:30:52.332Z,5
2023-05-17T00:31:52.319Z,4
2023-05-17T00:32:52.348Z,5
2023-05-17T00:33:52.317Z,4
2023-05-17T00:34:52.406Z,3
2023-05-17T00:35:52.343Z,5
2023-05-17T00:36:52.384Z,6
2023-05-17T00:37:52.307Z,6
2023-05-17T00:38:52.316Z,4
2023-05-17T00:39:52.309Z,4
2023-05-17T00:40:52.299Z,4
2023-05-17T00:41:52.317Z,3
2023-05-17T00:42:52.305Z,4
2023-05-17T00:43:52.352Z,4
2023-05-17T00:44:52.324Z,5
2023-05-17T00:45:52.312Z,6
2023-05-17T00:46:52.320Z,5
2023-05-17T00:47:52.449Z,5
2023-05-17T00:48:52.309Z,5
2023-05-17T00:49:52.305Z,3
2023-05-17T00:50:52.297Z,3
2023-05-17T00:51:52.298Z,5
2023-05-17T00:52:52.346Z,4
2023-05-17T00:53:52.312Z,3
2023-05-17T00:54:52.321Z,3
2023-05-17T00:55:52.335Z,5
2023-05-17T00:56:52.335Z,5
2023-05-17T00:57:52.305Z,4
2023-05-17T00:58:52.333Z,3
2023-05-17T00:59:52.316Z,4
2023-05-17T01:00:52.325Z,3
2023-05-17T01:01:52.316Z,3
2023-05-17T01:02:52.362Z,5
2023-05-17T01:03:52.474Z,5
2023-05-17T01:04:52.368Z,5
2023-05-17T01:05:52.286Z,4
2023-05-17T01:06:52.315Z,4
2023-05-17T01:07:52.298Z,4
2023-05-17T01:08:52.321Z,4
2023-05-17T01:09:52.301Z,3
2023-05-17T01:10:52.306Z,3
2023-05-17T01:11:52.320Z,5
2023-05-17T01:12:52.329Z,4
2023-05-17T01:13:52.307Z,5
2023-05-17T01:14:52.312Z,7
2023-05-17T01:15:52.322Z,3
2023-05-17T01:16:52.317Z,3
2023-05-17T01:17:52.576Z,5
2023-05-17T01:18:52.492Z,6
2023-05-17T01:19:52.473Z,3
2023-05-17T01:20:52.308Z,3
2023-05-17T01:21:52.327Z,4
2023-05-17T01:22:52.331Z,6
2023-05-17T01:23:52.306Z,4
2023-05-17T01:24:52.321Z,4
2023-05-17T01:25:52.339Z,5
2023-05-17T01:26:52.332Z,3
2023-05-17T01:27:52.300Z,6
2023-05-17T01:28:52.318Z,5
2023-05-17T01:29:52.326Z,8
2023-05-17T01:31:52.307Z,5
2023-05-17T01:32:52.360Z,3
2023-05-17T01:33:52.338Z,5
2023-05-17T01:34:52.313Z,4
2023-05-17T01:35:52.310Z,5
2023-05-17T01:36:52.303Z,4
2023-05-17T01:37:52.326Z,6
2023-05-17T01:38:52.302Z,3
2023-05-17T01:39:52.324Z,4
2023-05-17T01:40:52.350Z,4
2023-05-17T01:42:52.307Z,4
2023-05-17T01:43:52.304Z,6
2023-05-17T01:44:52.314Z,3
2023-05-17T01:45:52.296Z,3
2023-05-17T01:47:52.393Z,4
2023-05-17T01:48:52.356Z,3
2023-05-17T01:49:52.316Z,4
2023-05-17T01:50:52.321Z,3
2023-05-17T01:51:52.303Z,4
2023-05-17T01:52:52.340Z,3
2023-05-17T01:53:52.331Z,3
2023-05-17T01:54:52.333Z,4
2023-05-17T01:55:52.376Z,3
2023-05-17T01:56:52.311Z,4
2023-05-17T01:57:52.316Z,4
2023-05-17T01:58:52.320Z,5
2023-05-17T01:59:52.312Z,4
2023-05-17T02:00:52.323Z,7
2023-05-17T02:02:52.360Z,4
2023-05-17T02:03:52.361Z,4
2023-05-17T02:04:52.343Z,3
2023-05-17T02:05:52.315Z,4
2023-05-17T02:06:52.324Z,5
2023-05-17T02:07:52.329Z,5
2023-05-17T02:08:52.319Z,6
2023-05-17T02:09:52.326Z,4
2023-05-17T02:10:52.340Z,5
2023-05-17T02:11:52.454Z,5
2023-05-17T02:12:52.294Z,4
2023-05-17T02:13:52.301Z,3
2023-05-17T02:14:52.318Z,5
2023-05-17T02:15:52.322Z,4
2023-05-17T02:16:52.320Z,4
2023-05-17T02:17:52.398Z,3
2023-05-17T02:18:52.364Z,4
2023-05-17T02:19:52.364Z,5
2023-05-17T02:20:52.317Z,6
2023-05-17T02:21:52.324Z,5
2023-05-17T02:22:52.386Z,4
2023-05-17T02:23:52.325Z,4
2023-05-17T02:24:52.330Z,4
2023-05-17T02:25:52.328Z,5
2023-05-17T02:26:52.334Z,3
2023-05-17T02:27:52.306Z,5
2023-05-17T02:28:52.342Z,5
2023-05-17T02:29:52.355Z,3
2023-05-17T02:30:52.329Z,6
2023-05-17T02:31:52.326Z,4
2023-05-17T02:32:52.389Z,4
2023-05-17T02:33:52.393Z,5
2023-05-17T02:34:52.323Z,6
2023-05-17T02:35:52.345Z,5
2023-05-17T02:37:52.345Z,4
2023-05-17T02:38:52.315Z,4
2023-05-17T02:39:52.337Z,5
2023-05-17T02:40:52.359Z,3
2023-05-17T02:41:52.347Z,3
2023-05-17T02:42:52.304Z,5
2023-05-17T02:43:52.310Z,6
2023-05-17T02:44:52.321Z,3
2023-05-17T02:45:52.327Z,3
2023-05-17T02:46:52.363Z,5
2023-05-17T02:47:52.330Z,5
2023-05-17T02:48:52.306Z,5
2023-05-17T02:49:52.310Z,5
2023-05-17T02:50:52.304Z,5
2023-05-17T02:51:52.377Z,4
2023-05-17T02:52:52.302Z,3
2023-05-17T02:53:52.330Z,3
2023-05-17T02:54:52.337Z,4
2023-05-17T02:55:52.314Z,4
2023-05-17T02:56:52.324Z,4
2023-05-17T02:57:52.314Z,5
2023-05-17T02:58:52.338Z,2
2023-05-17T02:59:52.315Z,4
2023-05-17T03:00:52.323Z,4
2023-05-17T03:01:52.317Z,4
2023-05-17T03:02:52.529Z,3
2023-05-17T03:03:52.473Z,4
2023-05-17T03:04:52.367Z,4
2023-05-17T03:05:52.310Z,5
2023-05-17T03:06:52.319Z,4
2023-05-17T03:07:52.317Z,5
2023-05-17T03:08:52.317Z,5
2023-05-17T03:09:52.323Z,4
2023-05-17T03:10:52.359Z,5
2023-05-17T03:11:52.319Z,4
2023-05-17T03:12:52.341Z,4
2023-05-17T03:13:52.354Z,6
2023-05-17T03:14:52.310Z,5
2023-05-17T03:15:52.338Z,4
2023-05-17T03:16:52.336Z,7
2023-05-17T03:17:52.448Z,7
2023-05-17T03:19:52.527Z,4
2023-05-17T03:20:52.323Z,4
2023-05-17T03:21:52.339Z,3
2023-05-17T03:22:52.305Z,5
2023-05-17T03:23:52.343Z,5
2023-05-17T03:24:52.344Z,5
2023-05-17T03:25:52.344Z,4
2023-05-17T03:26:52.315Z,5
2023-05-17T03:27:52.382Z,3
2023-05-17T03:28:52.335Z,6
2023-05-17T03:29:52.371Z,4
2023-05-17T03:30:52.398Z,4
2023-05-17T03:31:52.301Z,4
2023-05-17T03:32:52.443Z,5
2023-05-17T03:33:52.420Z,4
2023-05-17T03:34:52.337Z,6
2023-05-17T03:35:52.307Z,5
2023-05-17T03:36:52.315Z,4
2023-05-17T03:37:52.311Z,4
2023-05-17T03:38:52.307Z,4
2023-05-17T03:39:52.328Z,5
2023-05-17T03:40:52.381Z,5
2023-05-17T03:41:52.333Z,7
2023-05-17T03:43:52.322Z,7
2023-05-17T03:44:52.327Z,5
2023-05-17T03:45:52.318Z,7
2023-05-17T03:46:52.312Z,3
2023-05-17T03:47:52.331Z,5
2023-05-17T03:48:52.376Z,5
2023-05-17T03:49:52.342Z,5
2023-05-17T03:50:52.305Z,5
2023-05-17T03:51:52.330Z,4
2023-05-17T03:52:52.332Z,5
2023-05-17T03:53:52.318Z,5
2023-05-17T03:54:52.326Z,6
2023-05-17T03:55:52.335Z,3
2023-05-17T03:56:52.328Z,6
2023-05-17T03:57:52.324Z,6
2023-05-17T03:58:52.322Z,7
2023-05-17T03:59:52.329Z,5
2023-05-17T04:00:52.334Z,7
2023-05-17T04:01:53.983Z,5
2023-05-17T04:02:52.428Z,5
2023-05-17T04:03:52.351Z,7
2023-05-17T04:04:52.354Z,5
2023-05-17T04:05:52.338Z,7
2023-05-17T04:06:52.332Z,6
2023-05-17T04:07:52.316Z,7
2023-05-17T04:08:52.322Z,5
2023-05-17T04:09:52.338Z,6
2023-05-17T04:10:52.334Z,6
2023-05-17T04:11:52.305Z,6
2023-05-17T04:12:52.312Z,9
2023-05-17T04:13:52.313Z,7
2023-05-17T04:14:52.326Z,6
2023-05-17T04:15:52.321Z,6
2023-05-17T04:16:52.311Z,6
2023-05-17T04:17:52.468Z,7
2023-05-17T04:18:52.443Z,4
2023-05-17T04:19:52.358Z,6
2023-05-17T04:20:52.329Z,6
2023-05-17T04:21:52.333Z,5
2023-05-17T04:22:52.317Z,7
2023-05-17T04:23:52.305Z,5
2023-05-17T04:24:52.311Z,6
2023-05-17T04:25:52.321Z,7
2023-05-17T04:26:52.345Z,4
2023-05-17T04:27:52.338Z,6
2023-05-17T04:28:52.320Z,7
2023-05-17T04:29:52.322Z,6
2023-05-17T04:30:52.364Z,6
2023-05-17T04:31:52.339Z,6
2023-05-17T04:32:52.343Z,7
2023-05-17T04:33:52.399Z,5
2023-05-17T04:34:52.340Z,6
2023-05-17T04:35:52.300Z,6
2023-05-17T04:36:52.375Z,9
2023-05-17T04:37:52.332Z,6
2023-05-17T04:38:52.312Z,6
2023-05-17T04:39:52.331Z,5
2023-05-17T04:40:52.321Z,5
2023-05-17T04:41:52.310Z,8
2023-05-17T04:42:52.319Z,5
2023-05-17T04:43:52.326Z,9
2023-05-17T04:44:52.326Z,7
2023-05-17T04:45:52.320Z,9
2023-05-17T04:46:52.318Z,8
2023-05-17T04:47:52.447Z,8
2023-05-17T04:49:52.310Z,6
2023-05-17T04:50:52.302Z,10
2023-05-17T04:51:52.336Z,9
2023-05-17T04:52:52.304Z,8
2023-05-17T04:53:52.352Z,8
2023-05-17T04:54:52.342Z,7
2023-05-17T04:55:52.326Z,9
2023-05-17T04:56:52.323Z,9
2023-05-17T04:57:52.316Z,6
2023-05-17T04:58:53.101Z,8
2023-05-17T04:59:52.313Z,9
2023-05-17T05:00:52.315Z,8
2023-05-17T05:02:52.359Z,6
2023-05-17T05:03:52.327Z,8
2023-05-17T05:04:52.359Z,12
2023-05-17T05:05:52.319Z,7
2023-05-17T05:06:52.302Z,7
2023-05-17T05:07:52.310Z,7
2023-05-17T05:08:52.332Z,6
2023-05-17T05:09:52.318Z,9
2023-05-17T05:10:52.354Z,8
2023-05-17T05:11:52.329Z,7
2023-05-17T05:12:52.307Z,8
2023-05-17T05:13:52.299Z,8
2023-05-17T05:14:52.336Z,9
2023-05-17T05:15:52.353Z,9
2023-05-17T05:16:52.324Z,11
2023-05-17T05:17:52.372Z,9
2023-05-17T05:19:52.404Z,10
2023-05-17T05:20:52.314Z,9
2023-05-17T05:22:52.422Z,10
2023-05-17T05:23:52.325Z,10
2023-05-17T05:24:52.322Z,10
2023-05-17T05:25:52.325Z,11
2023-05-17T05:26:52.312Z,10
2023-05-17T05:27:52.395Z,11
2023-05-17T05:28:52.293Z,13
2023-05-17T05:29:52.310Z,13
2023-05-17T05:30:52.311Z,13
2023-05-17T05:31:52.330Z,14
2023-05-17T05:32:52.412Z,12
2023-05-17T05:33:52.371Z,13
2023-05-17T05:34:52.336Z,14
2023-05-17T05:35:52.294Z,16
2023-05-17T05:36:52.320Z,14
2023-05-17T05:37:52.296Z,11
2023-05-17T05:38:52.316Z,11
2023-05-17T05:39:52.376Z,10
2023-05-17T05:40:52.363Z,11
2023-05-17T05:41:52.319Z,13
2023-05-17T05:42:52.339Z,11
2023-05-17T05:43:52.319Z,14
2023-05-17T05:44:52.321Z,12
2023-05-17T05:45:52.306Z,11
2023-05-17T05:46:52.334Z,11
2023-05-17T05:47:52.430Z,13
2023-05-17T05:48:52.368Z,13
2023-05-17T05:49:52.319Z,10
2023-05-17T05:50:52.316Z,13
2023-05-17T05:51:52.300Z,14
2023-05-17T05:52:54.606Z,15
2023-05-17T05:53:52.312Z,14
2023-05-17T05:54:52.316Z,15
2023-05-17T05:55:52.352Z,14
2023-05-17T05:56:52.329Z,14
2023-05-17T05:57:52.305Z,17
2023-05-17T05:58:52.347Z,15
2023-05-17T05:59:52.321Z,13
2023-05-17T06:00:52.344Z,12
2023-05-17T06:01:52.317Z,13
2023-05-17T06:02:52.359Z,16
2023-05-17T06:03:52.316Z,20
2023-05-17T06:04:52.451Z,17
2023-05-17T06:05:52.394Z,18
2023-05-17T06:06:52.361Z,16
2023-05-17T06:07:52.314Z,13
2023-05-17T06:08:52.329Z,14
2023-05-17T06:09:52.309Z,16
2023-05-17T06:10:52.324Z,12
2023-05-17T06:11:52.316Z,15
2023-05-17T06:15:52.302Z,13
2023-05-17T06:16:52.318Z,14
2023-05-17T06:17:52.410Z,11
2023-05-17T06:18:52.384Z,10
2023-05-17T06:19:52.451Z,13
2023-05-17T06:20:52.312Z,13
2023-05-17T06:21:52.343Z,15
2023-05-17T06:22:52.320Z,14
2023-05-17T06:23:52.313Z,14
2023-05-17T06:24:52.334Z,15
2023-05-17T06:25:52.344Z,18
2023-05-17T06:26:52.339Z,17
2023-05-17T06:27:52.328Z,16
2023-05-17T06:28:52.325Z,19
2023-05-17T06:29:52.336Z,21
2023-05-17T06:30:52.341Z,20
2023-05-17T06:31:52.312Z,17
2023-05-17T06:32:52.436Z,20
2023-05-17T06:33:52.343Z,19
2023-05-17T06:34:52.327Z,21
2023-05-17T06:35:57.099Z,18
2023-05-17T06:36:52.322Z,21
2023-05-17T06:37:52.311Z,22
2023-05-17T06:38:52.322Z,23
2023-05-17T06:40:00.209Z,22
2023-05-17T06:40:52.370Z,23
2023-05-17T06:41:52.309Z,28
2023-05-17T06:42:52.293Z,27
2023-05-17T06:43:52.316Z,23
2023-05-17T06:44:52.342Z,20
2023-05-17T06:45:52.306Z,26
2023-05-17T06:46:52.322Z,26
2023-05-17T06:47:52.376Z,26
2023-05-17T06:48:52.485Z,23
2023-05-17T06:49:52.313Z,23
2023-05-17T06:50:52.341Z,26
2023-05-17T06:51:52.329Z,26
2023-05-17T06:52:52.340Z,27
2023-05-17T06:54:52.320Z,24
2023-05-17T06:55:52.320Z,25
2023-05-17T06:56:52.313Z,26
2023-05-17T06:57:52.300Z,22
2023-05-17T06:58:52.302Z,22
2023-05-17T06:59:52.366Z,26
2023-05-17T07:00:52.358Z,26
2023-05-17T07:01:52.360Z,23
2023-05-17T07:02:52.377Z,26
2023-05-17T07:03:52.477Z,22
2023-05-17T07:05:52.290Z,27
2023-05-17T07:06:52.295Z,23
2023-05-17T07:07:52.323Z,25
2023-05-17T07:08:52.349Z,24
2023-05-17T07:09:52.299Z,23
2023-05-17T07:10:52.343Z,22
2023-05-17T07:12:52.319Z,24
2023-05-17T07:13:54.324Z,26
2023-05-17T07:14:52.302Z,22
2023-05-17T07:15:52.305Z,22
2023-05-17T07:16:52.317Z,26
2023-05-17T07:17:52.387Z,22
2023-05-17T07:19:52.411Z,22
2023-05-17T07:20:52.329Z,21
2023-05-17T07:21:52.305Z,18
2023-05-17T07:22:52.309Z,23
2023-05-17T07:23:52.335Z,20
2023-05-17T07:24:52.338Z,22
2023-05-17T07:25:52.323Z,19
2023-05-17T07:26:52.808Z,18
2023-05-17T07:27:52.341Z,21
2023-05-17T07:28:52.338Z,21
2023-05-17T07:29:52.333Z,20
2023-05-17T07:30:52.342Z,24
2023-05-17T07:31:52.315Z,20
2023-05-17T07:32:52.428Z,19
2023-05-17T07:33:52.355Z,17
2023-05-17T07:34:52.323Z,21
2023-05-17T07:35:52.347Z,20
2023-05-17T07:36:52.322Z,24
2023-05-17T07:37:52.327Z,18
2023-05-17T07:38:52.356Z,22
2023-05-17T07:39:52.340Z,19
2023-05-17T07:40:52.338Z,20
2023-05-17T07:41:52.307Z,19
2023-05-17T07:42:52.335Z,17
2023-05-17T07:43:52.321Z,16
2023-05-17T07:44:52.314Z,20
2023-05-17T07:45:52.307Z,19
2023-05-17T07:46:52.418Z,20
2023-05-17T07:47:52.412Z,18
2023-05-17T07:49:52.327Z,20
2023-05-17T07:50:52.312Z,18
2023-05-17T07:51:52.311Z,19
2023-05-17T07:52:52.322Z,17
2023-05-17T07:53:52.328Z,16
2023-05-17T07:54:52.340Z,18
2023-05-17T07:55:52.356Z,16
2023-05-17T07:56:52.315Z,19
2023-05-17T07:57:52.317Z,13
2023-05-17T07:58:52.324Z,15
2023-05-17T07:59:52.306Z,16
2023-05-17T08:00:52.316Z,14
2023-05-17T08:01:52.354Z,15
2023-05-17T08:02:52.367Z,12
2023-05-17T08:03:52.339Z,12
2023-05-17T08:04:52.554Z,11
2023-05-17T08:05:52.377Z,14
2023-05-17T08:06:52.354Z,15
2023-05-17T08:07:52.318Z,13
2023-05-17T08:08:52.332Z,15
2023-05-17T08:09:53.350Z,17
2023-05-17T08:10:52.324Z,17
2023-05-17T08:11:52.322Z,13
2023-05-17T08:12:52.331Z,13
2023-05-17T08:13:52.347Z,14
2023-05-17T08:14:52.337Z,12
2023-05-17T08:15:58.517Z,11
2023-05-17T08:16:52.325Z,12
2023-05-17T08:17:52.423Z,11
2023-05-17T08:18:52.498Z,10
2023-05-17T08:19:52.349Z,12
2023-05-17T08:20:52.316Z,9
2023-05-17T08:21:52.332Z,13
2023-05-17T08:22:52.309Z,9
2023-05-17T08:23:52.342Z,13
2023-05-17T08:24:52.361Z,9
2023-05-17T08:25:52.334Z,10
2023-05-17T08:26:52.309Z,10
2023-05-17T08:27:52.351Z,13
2023-05-17T08:28:52.372Z,9
2023-05-17T08:29:52.343Z,8
2023-05-17T08:30:52.313Z,7
2023-05-17T08:31:52.324Z,6
2023-05-17T08:32:52.409Z,8
2023-05-17T08:34:52.325Z,8
2023-05-17T08:35:52.322Z,9
2023-05-17T08:36:52.346Z,7
2023-05-17T08:37:52.311Z,6
2023-05-17T08:38:52.342Z,7
2023-05-17T08:39:52.384Z,7
2023-05-17T08:40:52.354Z,10
2023-05-17T08:41:52.326Z,5
2023-05-17T08:42:52.338Z,8
2023-05-17T08:43:52.343Z,7
2023-05-17T08:44:52.313Z,7
2023-05-17T08:45:52.326Z,9
2023-05-17T08:47:52.353Z,6
2023-05-17T08:50:52.330Z,6
2023-05-17T08:51:52.342Z,7
2023-05-17T08:52:52.387Z,9
2023-05-17T08:53:52.336Z,7
2023-05-17T08:55:52.317Z,7
2023-05-17T08:56:52.379Z,7
2023-05-17T08:57:52.329Z,4
2023-05-17T08:58:57.153Z,5
2023-05-17T08:59:52.321Z,6
2023-05-17T09:00:52.339Z,8
2023-05-17T09:01:52.348Z,6
2023-05-17T09:02:52.373Z,8
2023-05-17T09:03:52.334Z,9
2023-05-17T09:04:52.406Z,5
2023-05-17T09:05:52.381Z,6
2023-05-17T09:06:52.365Z,6
2023-05-17T09:07:52.318Z,6
2023-05-17T09:08:52.330Z,7
2023-05-17T09:09:52.350Z,5
2023-05-17T09:10:52.337Z,4
2023-05-17T09:11:52.322Z,5
2023-05-17T09:13:52.320Z,6
2023-05-17T09:14:52.352Z,5
2023-05-17T09:15:52.309Z,4
2023-05-17T09:16:52.334Z,5
2023-05-17T09:17:52.448Z,9
2023-05-17T09:18:52.418Z,10
2023-05-17T09:19:52.414Z,6
2023-05-17T09:20:52.364Z,5
2023-05-17T09:21:52.330Z,8
2023-05-17T09:22:52.344Z,7
2023-05-17T09:24:04.749Z,6
2023-05-17T09:24:52.337Z,7
2023-05-17T09:25:52.353Z,6
2023-05-17T09:27:52.307Z,7
2023-05-17T09:28:52.312Z,6
2023-05-17T09:29:52.317Z,4
2023-05-17T09:30:52.335Z,5
2023-05-17T09:32:52.474Z,7
2023-05-17T09:33:52.378Z,7
2023-05-17T09:34:52.333Z,6
2023-05-17T09:35:52.322Z,6
2023-05-17T09:36:52.343Z,7
2023-05-17T09:37:52.354Z,6
2023-05-17T09:38:52.349Z,7
2023-05-17T09:39:52.318Z,5
2023-05-17T09:40:52.362Z,7
2023-05-17T09:41:52.346Z,5
2023-05-17T09:42:52.347Z,6
2023-05-17T09:43:52.342Z,6
2023-05-17T09:44:52.334Z,6
2023-05-17T09:45:52.326Z,5
2023-05-17T09:46:52.329Z,5
2023-05-17T09:47:52.489Z,6
2023-05-17T09:48:52.403Z,6
2023-05-17T09:49:52.334Z,6
2023-05-17T09:50:52.349Z,7
2023-05-17T09:51:52.342Z,6
2023-05-17T09:52:52.347Z,7
2023-05-17T09:53:52.350Z,7
2023-05-17T09:55:52.361Z,6
2023-05-17T09:57:52.340Z,10
2023-05-17T09:59:52.323Z,6
2023-05-17T10:00:52.359Z,10
2023-05-17T10:01:52.343Z,6
2023-05-17T10:02:52.451Z,8
2023-05-17T10:03:52.348Z,9
2023-05-17T10:04:52.474Z,9
2023-05-17T10:05:52.359Z,6
2023-05-17T10:07:52.339Z,7
2023-05-17T10:08:52.341Z,8
2023-05-17T10:09:52.352Z,6
2023-05-17T10:10:52.327Z,7
2023-05-17T10:11:52.369Z,9
2023-05-17T10:12:52.382Z,11
2023-05-17T10:13:52.466Z,8
2023-05-17T10:14:52.542Z,8
2023-05-17T10:15:52.323Z,7
2023-05-17T10:16:52.353Z,6
2023-05-17T10:17:52.432Z,6
2023-05-17T10:19:52.476Z,5
2023-05-17T10:20:52.550Z,7
2023-05-17T10:21:52.362Z,9
2023-05-17T10:22:52.344Z,8
2023-05-17T10:23:52.331Z,7
2023-05-17T10:24:52.385Z,6
2023-05-17T10:25:52.351Z,6
2023-05-17T10:26:52.399Z,7
2023-05-17T10:27:52.365Z,9
2023-05-17T10:28:52.355Z,8
2023-05-17T10:29:52.336Z,6
2023-05-17T10:30:52.334Z,7
2023-05-17T10:31:52.345Z,6
2023-05-17T10:32:52.424Z,9
2023-05-17T10:33:52.405Z,8
2023-05-17T10:35:05.842Z,5
2023-05-17T10:35:52.358Z,5
2023-05-17T10:36:52.334Z,9
2023-05-17T10:37:52.327Z,6
2023-05-17T10:38:52.339Z,6
2023-05-17T10:39:52.353Z,7
2023-05-17T10:40:52.413Z,7
2023-05-17T10:41:53.021Z,7
2023-05-17T10:42:52.347Z,7
2023-05-17T10:43:52.351Z,8
2023-05-17T10:44:52.345Z,6
2023-05-17T10:45:52.336Z,6
2023-05-17T10:46:52.330Z,8
2023-05-17T10:47:52.368Z,6
2023-05-17T10:48:52.427Z,6
2023-05-17T10:49:52.345Z,6
2023-05-17T10:51:00.906Z,7
2023-05-17T10:51:52.332Z,7
2023-05-17T10:52:52.350Z,6
2023-05-17T10:53:52.346Z,7
2023-05-17T10:55:52.366Z,7
2023-05-17T10:56:52.319Z,7
2023-05-17T10:57:52.345Z,7
2023-05-17T10:58:52.456Z,8
2023-05-17T10:59:52.350Z,6
2023-05-17T11:00:53.259Z,10
2023-05-17T11:01:52.328Z,8
2023-05-17T11:03:52.348Z,6
2023-05-17T11:04:52.373Z,9
2023-05-17T11:05:52.478Z,10
2023-05-17T11:06:52.417Z,7
2023-05-17T11:07:52.364Z,7
2023-05-17T11:08:52.343Z,7
2023-05-17T11:09:52.344Z,6
2023-05-17T11:10:52.361Z,10
2023-05-17T11:11:52.351Z,8
2023-05-17T11:12:52.338Z,5
2023-05-17T11:13:52.354Z,5
2023-05-17T11:14:52.344Z,7
2023-05-17T11:15:52.386Z,4
2023-05-17T11:16:52.349Z,9
2023-05-17T11:17:52.380Z,6
2023-05-17T11:18:52.482Z,6
2023-05-17T11:19:52.486Z,8
2023-05-17T11:20:52.680Z,7
2023-05-17T11:21:52.368Z,4
2023-05-17T11:22:52.351Z,7
2023-05-17T11:23:52.357Z,7
2023-05-17T11:24:52.441Z,5
2023-05-17T11:25:54.147Z,6
2023-05-17T11:26:52.526Z,8
2023-05-17T11:27:52.334Z,5
2023-05-17T11:28:52.362Z,6
2023-05-17T11:29:52.364Z,6
2023-05-17T11:31:52.392Z,7
2023-05-17T11:32:52.421Z,5
2023-05-17T11:33:52.384Z,6
2023-05-17T11:34:52.354Z,5
2023-05-17T11:35:52.350Z,7
2023-05-17T11:36:52.356Z,9
2023-05-17T11:37:52.360Z,6
2023-05-17T11:38:58.357Z,6
2023-05-17T11:39:53.147Z,6
2023-05-17T11:40:52.386Z,7
2023-05-17T11:41:52.388Z,5
2023-05-17T11:42:52.431Z,6
2023-05-17T11:43:52.389Z,6
2023-05-17T11:44:52.381Z,8
2023-05-17T11:45:53.696Z,4
2023-05-17T11:46:52.499Z,5
2023-05-17T11:47:52.666Z,5
2023-05-17T11:48:52.768Z,5
2023-05-17T11:49:54.307Z,8
2023-05-17T11:50:52.428Z,6
2023-05-17T11:51:52.333Z,8
2023-05-17T11:52:52.342Z,4
2023-05-17T11:53:52.361Z,7
2023-05-17T11:54:52.363Z,5
2023-05-17T11:55:52.368Z,6
2023-05-17T11:56:52.372Z,8
2023-05-17T11:57:52.407Z,7
2023-05-17T11:58:52.345Z,8
2023-05-17T11:59:52.361Z,5
2023-05-17T12:01:52.385Z,5
2023-05-17T12:02:52.386Z,5
2023-05-17T12:03:52.345Z,5
2023-05-17T12:04:52.428Z,5
2023-05-17T12:05:52.396Z,8
2023-05-17T12:06:52.581Z,6
2023-05-17T12:07:52.355Z,3
2023-05-17T12:09:52.383Z,6
2023-05-17T12:10:52.365Z,10
2023-05-17T12:11:52.378Z,10
2023-05-17T12:12:52.493Z,6
2023-05-17T12:13:52.354Z,7
2023-05-17T12:14:52.362Z,6
2023-05-17T12:15:52.392Z,6
2023-05-17T12:17:52.401Z,9
2023-05-17T12:18:52.611Z,6
2023-05-17T12:19:52.426Z,6
2023-05-17T12:20:52.377Z,7
2023-05-17T12:21:52.516Z,7
2023-05-17T12:22:52.374Z,6
2023-05-17T12:23:52.359Z,5
2023-05-17T12:24:52.446Z,5
2023-05-17T12:25:52.374Z,6
2023-05-17T12:26:52.362Z,7
2023-05-17T12:27:52.441Z,6
2023-05-17T12:28:52.413Z,7
2023-05-17T12:29:52.358Z,5
2023-05-17T12:30:52.363Z,5
2023-05-17T12:31:52.373Z,5
2023-05-17T12:32:52.454Z,7
2023-05-17T12:33:52.455Z,6
2023-05-17T12:34:52.344Z,6
2023-05-17T12:35:52.365Z,5
2023-05-17T12:36:52.353Z,6
2023-05-17T12:37:52.346Z,4
2023-05-17T12:38:52.411Z,6
2023-05-17T12:39:52.372Z,6
2023-05-17T12:40:52.619Z,7
2023-05-17T12:41:52.365Z,6
2023-05-17T12:43:54.996Z,7
2023-05-17T12:44:52.372Z,6
2023-05-17T12:45:52.348Z,5
2023-05-17T12:46:52.327Z,8
2023-05-17T12:47:52.372Z,8
2023-05-17T12:49:52.357Z,6
2023-05-17T12:50:52.360Z,7
2023-05-17T12:51:52.370Z,6
2023-05-17T12:53:52.356Z,7
2023-05-17T12:54:52.385Z,8
2023-05-17T12:55:52.380Z,6
2023-05-17T12:56:52.346Z,6
2023-05-17T12:57:52.577Z,5
2023-05-17T12:58:52.378Z,8
2023-05-17T12:59:52.358Z,5
2023-05-17T13:00:52.358Z,5
2023-05-17T13:01:52.335Z,6
2023-05-17T13:02:52.447Z,6
2023-05-17T13:03:52.477Z,6
2023-05-17T13:04:52.429Z,5
2023-05-17T13:05:52.358Z,8
2023-05-17T13:06:52.370Z,9
2023-05-17T13:07:52.364Z,7
2023-05-17T13:08:52.353Z,5
2023-05-17T13:09:52.365Z,5
2023-05-17T13:10:52.364Z,6
2023-05-17T13:11:52.400Z,7
2023-05-17T13:12:52.574Z,5
2023-05-17T13:13:52.376Z,7
2023-05-17T13:14:52.366Z,8
2023-05-17T13:15:52.347Z,8
2023-05-17T13:16:52.425Z,7
2023-05-17T13:17:52.421Z,5
2023-05-17T13:18:52.524Z,6
2023-05-17T13:19:52.397Z,7
2023-05-17T13:20:52.350Z,8
2023-05-17T13:21:52.394Z,7
2023-05-17T13:22:52.365Z,8
2023-05-17T13:23:52.387Z,6
2023-05-17T13:24:52.354Z,5
2023-05-17T13:25:52.377Z,4
2023-05-17T13:26:52.380Z,6
2023-05-17T13:27:52.361Z,6
2023-05-17T13:28:52.369Z,7
2023-05-17T13:32:52.453Z,8
2023-05-17T13:33:52.469Z,5
2023-05-17T13:34:52.354Z,7
2023-05-17T13:35:52.369Z,5
2023-05-17T13:36:52.398Z,5
2023-05-17T13:37:52.380Z,9
2023-05-17T13:38:52.353Z,6
2023-05-17T13:39:52.351Z,7
2023-05-17T13:40:52.374Z,8
2023-05-17T13:41:52.407Z,4
2023-05-17T13:42:52.363Z,5
2023-05-17T13:43:52.370Z,7
2023-05-17T13:44:52.377Z,6
2023-05-17T13:45:52.358Z,5
2023-05-17T13:46:52.346Z,6
2023-05-17T13:47:52.462Z,6
2023-05-17T13:48:52.474Z,5
2023-05-17T13:50:52.361Z,6
2023-05-17T13:51:52.382Z,5
2023-05-17T13:53:52.360Z,6
2023-05-17T13:54:52.584Z,5
2023-05-17T13:55:52.394Z,5
2023-05-17T13:56:52.363Z,6
2023-05-17T13:57:52.360Z,6
2023-05-17T13:58:52.369Z,8
2023-05-17T13:59:52.450Z,6
2023-05-17T14:01:52.357Z,9
2023-05-17T14:02:52.384Z,6
2023-05-17T14:03:52.390Z,5
2023-05-17T14:04:52.384Z,8
2023-05-17T14:05:52.384Z,7
2023-05-17T14:06:54.857Z,6
2023-05-17T14:07:52.368Z,7
2023-05-17T14:08:52.409Z,6
2023-05-17T14:10:52.374Z,5
2023-05-17T14:11:52.378Z,5
2023-05-17T14:12:52.370Z,6
2023-05-17T14:13:52.355Z,5
2023-05-17T14:14:52.355Z,6
2023-05-17T14:15:52.365Z,5
2023-05-17T14:16:52.369Z,7
2023-05-17T14:17:52.508Z,6
2023-05-17T14:18:52.573Z,7
2023-05-17T14:19:52.396Z,6
2023-05-17T14:20:52.394Z,7
2023-05-17T14:21:52.361Z,4
2023-05-17T14:22:52.380Z,8
2023-05-17T14:23:52.376Z,6
2023-05-17T14:24:52.370Z,6
2023-05-17T14:25:52.384Z,5
2023-05-17T14:26:52.376Z,5
2023-05-17T14:27:52.378Z,6
2023-05-17T14:28:52.412Z,7
2023-05-17T14:29:52.383Z,4
2023-05-17T14:30:52.372Z,4
2023-05-17T14:31:52.394Z,4
2023-05-17T14:32:52.420Z,6
2023-05-17T14:33:52.400Z,7
2023-05-17T14:34:52.359Z,7
2023-05-17T14:35:52.383Z,8
2023-05-17T14:36:52.393Z,6
2023-05-17T14:37:52.357Z,7
2023-05-17T14:38:52.364Z,6
2023-05-17T14:40:05.816Z,7
2023-05-17T14:41:52.383Z,5
2023-05-17T14:42:52.431Z,4
2023-05-17T14:43:52.387Z,4
2023-05-17T14:44:52.382Z,5
2023-05-17T14:45:52.404Z,7
2023-05-17T14:46:52.369Z,5
2023-05-17T14:47:52.392Z,6
2023-05-17T14:48:52.506Z,5
2023-05-17T14:49:52.383Z,4
2023-05-17T14:50:52.359Z,5
2023-05-17T14:51:52.398Z,6
2023-05-17T14:52:52.367Z,6
2023-05-17T14:53:52.392Z,6
2023-05-17T14:54:52.393Z,5
2023-05-17T14:55:52.374Z,5
2023-05-17T14:56:52.392Z,5
2023-05-17T14:57:52.410Z,6
2023-05-17T14:58:52.388Z,7
2023-05-17T14:59:52.376Z,6
2023-05-17T15:00:56.164Z,6
2023-05-17T15:01:52.377Z,7
2023-05-17T15:02:52.410Z,6
2023-05-17T15:03:52.415Z,8
2023-05-17T15:04:52.475Z,7
2023-05-17T15:05:52.377Z,6
2023-05-17T15:06:52.368Z,4
2023-05-17T15:07:52.360Z,5
2023-05-17T15:08:52.370Z,6
2023-05-17T15:09:52.451Z,5
2023-05-17T15:11:52.391Z,8
2023-05-17T15:12:52.426Z,5
2023-05-17T15:13:52.381Z,7
2023-05-17T15:14:52.384Z,7
2023-05-17T15:15:52.389Z,4
2023-05-17T15:16:52.430Z,5
2023-05-17T15:17:52.412Z,9
2023-05-17T15:18:54.267Z,5
2023-05-17T15:19:52.499Z,6
2023-05-17T15:20:52.361Z,5
2023-05-17T15:21:52.389Z,6
2023-05-17T15:22:52.370Z,5
2023-05-17T15:23:52.392Z,4
2023-05-17T15:24:52.386Z,5
2023-05-17T15:25:52.385Z,8
2023-05-17T15:26:52.394Z,6
2023-05-17T15:27:52.392Z,6
2023-05-17T15:28:52.398Z,7
2023-05-17T15:29:52.399Z,5
2023-05-17T15:30:52.368Z,7
2023-05-17T15:31:52.396Z,6
2023-05-17T15:32:52.408Z,6